logo
Rechercher aéroport 
image banner adimage banner adimage banner ad
image banner ad

22CN - Abc-Tv

Situé à Los Angeles, United States

ICAO - 22CN, IATA -

Données fournies par Airmate  

Information générale

Coordonnées: N34°6'12" W118°16'46"
Élévation : 422 feet MSL.
Variation magnétique : 14° East
Voir autres Aéroports à California

Données opérationnelles

Special qualification required
Heure actuelle UTC:
Heure actuelle locale:
Météo à : KBUR - Bob Hope ( 13 km )
METAR: KBUR 281153Z 00000KT 10SM CLR 24/12 A2990 RMK AO2 SLP110 T02390122 10256 20233 55000
TAF: KBUR 281148Z 2812/2912 VRB03KT P6SM SKC FM282000 17008KT P6SM SKC FM290400 12006KT P6SM SKC FM290800 VRB03KT P6SM SKC
Voir NOTAMs / SUP AIP / TFR affectant cet aéroport [VIEW]
Fréquences de communication: [VIEW]

Pistes:

Coordonnées de l'aéroport

Adresse: Los Angeles United States

Vue satellite de 22CN